sensor_id;sensor_type;location;lat;lon;timestamp;P1;durP1;ratioP1;P2;durP2;ratioP2
56862;SDS011;42746;49.976;20.182;2022-07-17T00:00:19;4.63;;;1.90;;
56862;SDS011;42746;49.976;20.182;2022-07-17T00:02:38;3.65;;;2.20;;
56862;SDS011;42746;49.976;20.182;2022-07-17T00:04:38;3.33;;;2.45;;
56862;SDS011;42746;49.976;20.182;2022-07-17T00:06:39;6.65;;;2.30;;
56862;SDS011;42746;49.976;20.182;2022-07-17T00:08:40;3.00;;;2.40;;
56862;SDS011;42746;49.976;20.182;2022-07-17T00:10:41;4.07;;;2.38;;
56862;SDS011;42746;49.976;20.182;2022-07-17T00:12:43;4.68;;;2.42;;
56862;SDS011;42746;49.976;20.182;2022-07-17T00:14:44;2.22;;;2.03;;
56862;SDS011;42746;49.976;20.182;2022-07-17T00:16:45;5.85;;;2.47;;
56862;SDS011;42746;49.976;20.182;2022-07-17T00:18:47;4.53;;;2.33;;
56862;SDS011;42746;49.976;20.182;2022-07-17T00:20:48;4.97;;;2.35;;
56862;SDS011;42746;49.976;20.182;2022-07-17T00:22:48;5.45;;;2.40;;
56862;SDS011;42746;49.976;20.182;2022-07-17T00:24:49;3.72;;;2.65;;
56862;SDS011;42746;49.976;20.182;2022-07-17T00:26:50;3.95;;;2.30;;
56862;SDS011;42746;49.976;20.182;2022-07-17T00:28:52;4.28;;;2.58;;
56862;SDS011;42746;49.976;20.182;2022-07-17T00:30:53;4.93;;;2.55;;
56862;SDS011;42746;49.976;20.182;2022-07-17T00:32:54;3.70;;;2.38;;
56862;SDS011;42746;49.976;20.182;2022-07-17T00:34:56;4.80;;;2.35;;
56862;SDS011;42746;49.976;20.182;2022-07-17T00:36:57;3.95;;;2.25;;
56862;SDS011;42746;49.976;20.182;2022-07-17T00:38:58;3.40;;;2.40;;
56862;SDS011;42746;49.976;20.182;2022-07-17T00:40:59;4.15;;;2.60;;
56862;SDS011;42746;49.976;20.182;2022-07-17T00:42:59;3.17;;;2.13;;
56862;SDS011;42746;49.976;20.182;2022-07-17T00:45:00;3.65;;;2.20;;
56862;SDS011;42746;49.976;20.182;2022-07-17T00:47:01;4.35;;;2.60;;
56862;SDS011;42746;49.976;20.182;2022-07-17T00:49:02;3.10;;;2.30;;
56862;SDS011;42746;49.976;20.182;2022-07-17T00:51:04;5.65;;;2.45;;
56862;SDS011;42746;49.976;20.182;2022-07-17T00:53:06;6.00;;;2.70;;
56862;SDS011;42746;49.976;20.182;2022-07-17T00:55:08;3.28;;;2.28;;
56862;SDS011;42746;49.976;20.182;2022-07-17T00:57:11;4.38;;;2.83;;
56862;SDS011;42746;49.976;20.182;2022-07-17T00:59:14;3.20;;;2.53;;
56862;SDS011;42746;49.976;20.182;2022-07-17T01:01:15;3.75;;;2.53;;
56862;SDS011;42746;49.976;20.182;2022-07-17T01:03:17;4.13;;;2.83;;
56862;SDS011;42746;49.976;20.182;2022-07-17T01:05:19;3.67;;;2.80;;
56862;SDS011;42746;49.976;20.182;2022-07-17T01:07:22;4.00;;;2.70;;
56862;SDS011;42746;49.976;20.182;2022-07-17T01:09:24;4.53;;;2.75;;
56862;SDS011;42746;49.976;20.182;2022-07-17T01:11:28;5.78;;;2.80;;
56862;SDS011;42746;49.976;20.182;2022-07-17T01:13:29;4.97;;;3.13;;
56862;SDS011;42746;49.976;20.182;2022-07-17T01:15:30;4.47;;;3.03;;
56862;SDS011;42746;49.976;20.182;2022-07-17T01:17:32;4.75;;;3.10;;
56862;SDS011;42746;49.976;20.182;2022-07-17T01:19:32;4.88;;;3.30;;
56862;SDS011;42746;49.976;20.182;2022-07-17T01:21:38;5.60;;;3.50;;
56862;SDS011;42746;49.976;20.182;2022-07-17T01:23:39;10.20;;;3.40;;
56862;SDS011;42746;49.976;20.182;2022-07-17T01:25:40;3.95;;;3.20;;
56862;SDS011;42746;49.976;20.182;2022-07-17T01:27:41;6.18;;;3.42;;
56862;SDS011;42746;49.976;20.182;2022-07-17T01:29:42;6.35;;;3.40;;
56862;SDS011;42746;49.976;20.182;2022-07-17T01:31:44;8.00;;;3.70;;
56862;SDS011;42746;49.976;20.182;2022-07-17T01:33:45;4.60;;;3.38;;
56862;SDS011;42746;49.976;20.182;2022-07-17T01:35:46;6.03;;;3.60;;
56862;SDS011;42746;49.976;20.182;2022-07-17T01:37:48;5.60;;;3.50;;
56862;SDS011;42746;49.976;20.182;2022-07-17T01:39:49;6.60;;;3.67;;
56862;SDS011;42746;49.976;20.182;2022-07-17T01:41:49;6.85;;;3.40;;
56862;SDS011;42746;49.976;20.182;2022-07-17T01:43:50;6.32;;;4.00;;
56862;SDS011;42746;49.976;20.182;2022-07-17T01:45:51;5.80;;;3.97;;
56862;SDS011;42746;49.976;20.182;2022-07-17T01:47:52;5.45;;;4.20;;
56862;SDS011;42746;49.976;20.182;2022-07-17T01:49:53;7.15;;;4.35;;
56862;SDS011;42746;49.976;20.182;2022-07-17T01:51:55;6.32;;;4.10;;
56862;SDS011;42746;49.976;20.182;2022-07-17T01:53:57;8.43;;;4.57;;
56862;SDS011;42746;49.976;20.182;2022-07-17T01:55:57;10.83;;;4.17;;
56862;SDS011;42746;49.976;20.182;2022-07-17T01:57:58;6.90;;;4.57;;
56862;SDS011;42746;49.976;20.182;2022-07-17T01:59:59;10.88;;;4.72;;
56862;SDS011;42746;49.976;20.182;2022-07-17T02:02:00;7.60;;;4.82;;
56862;SDS011;42746;49.976;20.182;2022-07-17T02:04:01;7.63;;;4.50;;
56862;SDS011;42746;49.976;20.182;2022-07-17T02:06:02;8.60;;;5.68;;
56862;SDS011;42746;49.976;20.182;2022-07-17T02:08:03;7.65;;;5.13;;
56862;SDS011;42746;49.976;20.182;2022-07-17T02:10:06;9.45;;;5.20;;
56862;SDS011;42746;49.976;20.182;2022-07-17T02:12:08;6.75;;;5.40;;
56862;SDS011;42746;49.976;20.182;2022-07-17T02:14:09;7.60;;;5.53;;
56862;SDS011;42746;49.976;20.182;2022-07-17T02:16:10;8.00;;;5.50;;
56862;SDS011;42746;49.976;20.182;2022-07-17T02:18:10;9.77;;;5.75;;
56862;SDS011;42746;49.976;20.182;2022-07-17T02:20:12;8.38;;;5.68;;
56862;SDS011;42746;49.976;20.182;2022-07-17T02:22:13;10.98;;;5.60;;
56862;SDS011;42746;49.976;20.182;2022-07-17T02:24:13;11.60;;;5.00;;
56862;SDS011;42746;49.976;20.182;2022-07-17T02:26:15;8.52;;;5.20;;
56862;SDS011;42746;49.976;20.182;2022-07-17T02:28:16;6.30;;;5.05;;
56862;SDS011;42746;49.976;20.182;2022-07-17T02:30:17;9.23;;;5.15;;
56862;SDS011;42746;49.976;20.182;2022-07-17T02:32:18;9.05;;;4.80;;
56862;SDS011;42746;49.976;20.182;2022-07-17T02:34:19;9.20;;;5.25;;
56862;SDS011;42746;49.976;20.182;2022-07-17T02:36:19;8.38;;;4.93;;
56862;SDS011;42746;49.976;20.182;2022-07-17T02:38:20;7.57;;;4.57;;
56862;SDS011;42746;49.976;20.182;2022-07-17T02:40:21;7.43;;;4.10;;
56862;SDS011;42746;49.976;20.182;2022-07-17T02:42:24;6.35;;;4.38;;
56862;SDS011;42746;49.976;20.182;2022-07-17T02:44:25;6.30;;;4.30;;
56862;SDS011;42746;49.976;20.182;2022-07-17T02:46:26;7.38;;;4.55;;
56862;SDS011;42746;49.976;20.182;2022-07-17T02:48:27;5.95;;;4.40;;
56862;SDS011;42746;49.976;20.182;2022-07-17T02:50:28;7.53;;;4.60;;
56862;SDS011;42746;49.976;20.182;2022-07-17T02:52:29;9.35;;;4.40;;
56862;SDS011;42746;49.976;20.182;2022-07-17T02:54:30;6.32;;;4.47;;
56862;SDS011;42746;49.976;20.182;2022-07-17T02:56:30;7.68;;;5.10;;
56862;SDS011;42746;49.976;20.182;2022-07-17T02:58:33;8.20;;;4.38;;
56862;SDS011;42746;49.976;20.182;2022-07-17T03:00:33;11.88;;;4.97;;
56862;SDS011;42746;49.976;20.182;2022-07-17T03:02:34;6.40;;;4.50;;
56862;SDS011;42746;49.976;20.182;2022-07-17T03:04:35;7.60;;;4.80;;
56862;SDS011;42746;49.976;20.182;2022-07-17T03:06:36;6.60;;;4.50;;
56862;SDS011;42746;49.976;20.182;2022-07-17T03:08:36;7.68;;;4.28;;
56862;SDS011;42746;49.976;20.182;2022-07-17T03:10:37;7.57;;;4.57;;
56862;SDS011;42746;49.976;20.182;2022-07-17T03:12:38;7.18;;;4.82;;
56862;SDS011;42746;49.976;20.182;2022-07-17T03:14:40;6.57;;;4.32;;
56862;SDS011;42746;49.976;20.182;2022-07-17T03:16:41;9.07;;;3.85;;
56862;SDS011;42746;49.976;20.182;2022-07-17T03:18:42;5.40;;;3.80;;
56862;SDS011;42746;49.976;20.182;2022-07-17T03:20:43;8.55;;;4.45;;
56862;SDS011;42746;49.976;20.182;2022-07-17T03:22:44;13.80;;;4.35;;
56862;SDS011;42746;49.976;20.182;2022-07-17T03:24:44;6.63;;;3.70;;
56862;SDS011;42746;49.976;20.182;2022-07-17T03:26:45;6.03;;;4.20;;
56862;SDS011;42746;49.976;20.182;2022-07-17T03:28:46;5.75;;;3.75;;
56862;SDS011;42746;49.976;20.182;2022-07-17T03:30:48;11.13;;;3.38;;
56862;SDS011;42746;49.976;20.182;2022-07-17T03:32:49;5.03;;;3.83;;
56862;SDS011;42746;49.976;20.182;2022-07-17T03:34:49;8.35;;;3.70;;
56862;SDS011;42746;49.976;20.182;2022-07-17T03:36:50;6.10;;;3.83;;
56862;SDS011;42746;49.976;20.182;2022-07-17T03:38:52;6.40;;;3.97;;
56862;SDS011;42746;49.976;20.182;2022-07-17T03:40:53;10.30;;;4.18;;
56862;SDS011;42746;49.976;20.182;2022-07-17T03:42:54;6.63;;;3.92;;
56862;SDS011;42746;49.976;20.182;2022-07-17T03:44:54;6.28;;;3.85;;
56862;SDS011;42746;49.976;20.182;2022-07-17T03:46:57;5.60;;;3.10;;
56862;SDS011;42746;49.976;20.182;2022-07-17T03:48:57;7.70;;;3.65;;
56862;SDS011;42746;49.976;20.182;2022-07-17T03:50:58;5.82;;;3.33;;
56862;SDS011;42746;49.976;20.182;2022-07-17T03:52:59;6.78;;;3.15;;
56862;SDS011;42746;49.976;20.182;2022-07-17T03:55:00;3.60;;;2.80;;
56862;SDS011;42746;49.976;20.182;2022-07-17T03:57:00;5.93;;;3.00;;
56862;SDS011;42746;49.976;20.182;2022-07-17T03:59:01;6.72;;;2.88;;
56862;SDS011;42746;49.976;20.182;2022-07-17T04:01:02;8.35;;;2.88;;
56862;SDS011;42746;49.976;20.182;2022-07-17T04:03:04;7.07;;;3.20;;
56862;SDS011;42746;49.976;20.182;2022-07-17T04:05:05;10.48;;;3.15;;
56862;SDS011;42746;49.976;20.182;2022-07-17T04:07:06;7.97;;;3.28;;
56862;SDS011;42746;49.976;20.182;2022-07-17T04:09:07;11.75;;;3.83;;
56862;SDS011;42746;49.976;20.182;2022-07-17T04:11:08;5.35;;;2.65;;
56862;SDS011;42746;49.976;20.182;2022-07-17T04:13:09;6.13;;;2.95;;
56862;SDS011;42746;49.976;20.182;2022-07-17T04:15:09;7.65;;;3.20;;
56862;SDS011;42746;49.976;20.182;2022-07-17T04:17:11;6.07;;;2.78;;
56862;SDS011;42746;49.976;20.182;2022-07-17T04:19:13;5.93;;;2.92;;
56862;SDS011;42746;49.976;20.182;2022-07-17T04:21:14;5.03;;;3.10;;
56862;SDS011;42746;49.976;20.182;2022-07-17T04:23:15;6.75;;;2.80;;
56862;SDS011;42746;49.976;20.182;2022-07-17T04:25:15;5.43;;;2.70;;
56862;SDS011;42746;49.976;20.182;2022-07-17T04:27:16;6.28;;;3.00;;
56862;SDS011;42746;49.976;20.182;2022-07-17T04:29:17;6.13;;;2.65;;
56862;SDS011;42746;49.976;20.182;2022-07-17T04:31:18;12.05;;;3.25;;
56862;SDS011;42746;49.976;20.182;2022-07-17T04:33:19;5.45;;;3.03;;
56862;SDS011;42746;49.976;20.182;2022-07-17T04:35:21;6.68;;;3.05;;
56862;SDS011;42746;49.976;20.182;2022-07-17T04:37:22;5.57;;;3.30;;
56862;SDS011;42746;49.976;20.182;2022-07-17T04:39:22;5.82;;;3.20;;
56862;SDS011;42746;49.976;20.182;2022-07-17T04:41:23;4.47;;;2.72;;
56862;SDS011;42746;49.976;20.182;2022-07-17T04:43:24;6.10;;;2.90;;
56862;SDS011;42746;49.976;20.182;2022-07-17T04:45:24;6.22;;;3.17;;
56862;SDS011;42746;49.976;20.182;2022-07-17T04:47:26;7.35;;;2.88;;
56862;SDS011;42746;49.976;20.182;2022-07-17T04:49:26;7.07;;;2.90;;
56862;SDS011;42746;49.976;20.182;2022-07-17T04:51:28;5.45;;;2.55;;
56862;SDS011;42746;49.976;20.182;2022-07-17T04:53:29;6.55;;;2.60;;
56862;SDS011;42746;49.976;20.182;2022-07-17T04:55:30;4.93;;;2.75;;
56862;SDS011;42746;49.976;20.182;2022-07-17T04:57:30;5.72;;;2.67;;
56862;SDS011;42746;49.976;20.182;2022-07-17T04:59:31;8.65;;;2.78;;
56862;SDS011;42746;49.976;20.182;2022-07-17T05:01:32;4.93;;;2.33;;
56862;SDS011;42746;49.976;20.182;2022-07-17T05:03:33;9.00;;;3.33;;
56862;SDS011;42746;49.976;20.182;2022-07-17T05:05:34;5.82;;;2.70;;
56862;SDS011;42746;49.976;20.182;2022-07-17T05:07:36;6.95;;;2.75;;
56862;SDS011;42746;49.976;20.182;2022-07-17T05:09:36;4.88;;;3.00;;
56862;SDS011;42746;49.976;20.182;2022-07-17T05:11:37;7.13;;;3.10;;
56862;SDS011;42746;49.976;20.182;2022-07-17T05:13:38;6.53;;;2.35;;
56862;SDS011;42746;49.976;20.182;2022-07-17T05:15:40;7.13;;;2.88;;
56862;SDS011;42746;49.976;20.182;2022-07-17T05:17:41;11.77;;;2.88;;
56862;SDS011;42746;49.976;20.182;2022-07-17T05:19:41;8.93;;;2.83;;
56862;SDS011;42746;49.976;20.182;2022-07-17T05:21:42;6.20;;;2.38;;
56862;SDS011;42746;49.976;20.182;2022-07-17T05:23:44;8.38;;;3.03;;
56862;SDS011;42746;49.976;20.182;2022-07-17T05:25:45;7.75;;;2.83;;
56862;SDS011;42746;49.976;20.182;2022-07-17T05:27:46;5.90;;;3.00;;
56862;SDS011;42746;49.976;20.182;2022-07-17T05:29:47;8.25;;;3.13;;
56862;SDS011;42746;49.976;20.182;2022-07-17T05:31:48;7.63;;;3.05;;
56862;SDS011;42746;49.976;20.182;2022-07-17T05:33:49;7.82;;;3.28;;
56862;SDS011;42746;49.976;20.182;2022-07-17T05:35:50;6.60;;;2.95;;
56862;SDS011;42746;49.976;20.182;2022-07-17T05:37:50;4.70;;;2.55;;
56862;SDS011;42746;49.976;20.182;2022-07-17T05:39:52;5.93;;;2.80;;
56862;SDS011;42746;49.976;20.182;2022-07-17T05:41:53;6.47;;;2.70;;
56862;SDS011;42746;49.976;20.182;2022-07-17T05:43:54;7.07;;;2.50;;
56862;SDS011;42746;49.976;20.182;2022-07-17T05:45:55;6.28;;;2.90;;
56862;SDS011;42746;49.976;20.182;2022-07-17T05:47:56;7.85;;;2.63;;
56862;SDS011;42746;49.976;20.182;2022-07-17T05:49:57;4.25;;;2.53;;
56862;SDS011;42746;49.976;20.182;2022-07-17T05:51:57;10.73;;;2.83;;
56862;SDS011;42746;49.976;20.182;2022-07-17T05:53:58;6.25;;;2.80;;
56862;SDS011;42746;49.976;20.182;2022-07-17T05:56:00;4.80;;;2.17;;
56862;SDS011;42746;49.976;20.182;2022-07-17T05:58:01;6.22;;;2.58;;
56862;SDS011;42746;49.976;20.182;2022-07-17T06:00:02;5.63;;;2.53;;
56862;SDS011;42746;49.976;20.182;2022-07-17T06:02:04;7.63;;;2.70;;
56862;SDS011;42746;49.976;20.182;2022-07-17T06:04:05;6.38;;;2.42;;
56862;SDS011;42746;49.976;20.182;2022-07-17T06:06:06;9.05;;;2.60;;
56862;SDS011;42746;49.976;20.182;2022-07-17T06:08:06;7.72;;;3.55;;
56862;SDS011;42746;49.976;20.182;2022-07-17T06:10:08;6.43;;;3.00;;
56862;SDS011;42746;49.976;20.182;2022-07-17T06:12:11;6.38;;;2.40;;
56862;SDS011;42746;49.976;20.182;2022-07-17T06:14:11;7.65;;;2.50;;
56862;SDS011;42746;49.976;20.182;2022-07-17T06:16:12;4.75;;;2.70;;
56862;SDS011;42746;49.976;20.182;2022-07-17T06:18:13;4.10;;;2.33;;
56862;SDS011;42746;49.976;20.182;2022-07-17T06:20:14;7.90;;;3.38;;
56862;SDS011;42746;49.976;20.182;2022-07-17T06:22:15;5.13;;;2.40;;
56862;SDS011;42746;49.976;20.182;2022-07-17T06:24:16;6.38;;;2.70;;
56862;SDS011;42746;49.976;20.182;2022-07-17T06:26:17;5.75;;;2.38;;
56862;SDS011;42746;49.976;20.182;2022-07-17T06:28:19;10.65;;;2.78;;
56862;SDS011;42746;49.976;20.182;2022-07-17T06:30:20;5.28;;;2.63;;
56862;SDS011;42746;49.976;20.182;2022-07-17T06:32:21;10.32;;;2.70;;
56862;SDS011;42746;49.976;20.182;2022-07-17T06:34:21;4.63;;;2.60;;
56862;SDS011;42746;49.976;20.182;2022-07-17T06:36:22;10.23;;;2.67;;
56862;SDS011;42746;49.976;20.182;2022-07-17T06:38:23;4.90;;;2.42;;
56862;SDS011;42746;49.976;20.182;2022-07-17T06:40:24;6.50;;;2.65;;
56862;SDS011;42746;49.976;20.182;2022-07-17T06:42:25;7.55;;;2.50;;
56862;SDS011;42746;49.976;20.182;2022-07-17T06:44:27;6.20;;;2.55;;
56862;SDS011;42746;49.976;20.182;2022-07-17T06:46:28;9.48;;;2.40;;
56862;SDS011;42746;49.976;20.182;2022-07-17T06:48:29;4.65;;;2.05;;
56862;SDS011;42746;49.976;20.182;2022-07-17T06:50:29;6.63;;;2.47;;
56862;SDS011;42746;49.976;20.182;2022-07-17T06:52:30;8.52;;;2.40;;
56862;SDS011;42746;49.976;20.182;2022-07-17T06:54:31;8.05;;;2.75;;
56862;SDS011;42746;49.976;20.182;2022-07-17T06:56:32;10.73;;;3.20;;
56862;SDS011;42746;49.976;20.182;2022-07-17T06:58:32;9.07;;;2.65;;
56862;SDS011;42746;49.976;20.182;2022-07-17T07:00:34;10.10;;;2.55;;
56862;SDS011;42746;49.976;20.182;2022-07-17T07:02:35;10.48;;;3.17;;
56862;SDS011;42746;49.976;20.182;2022-07-17T07:04:37;7.17;;;2.47;;
56862;SDS011;42746;49.976;20.182;2022-07-17T07:06:38;6.07;;;1.80;;
56862;SDS011;42746;49.976;20.182;2022-07-17T07:08:39;6.78;;;1.98;;
56862;SDS011;42746;49.976;20.182;2022-07-17T07:10:39;5.05;;;2.20;;
56862;SDS011;42746;49.976;20.182;2022-07-17T07:12:40;6.65;;;2.33;;
56862;SDS011;42746;49.976;20.182;2022-07-17T07:14:41;5.82;;;1.67;;
56862;SDS011;42746;49.976;20.182;2022-07-17T07:16:44;8.45;;;2.30;;
56862;SDS011;42746;49.976;20.182;2022-07-17T07:18:45;5.65;;;2.03;;
56862;SDS011;42746;49.976;20.182;2022-07-17T07:20:45;7.28;;;1.88;;
56862;SDS011;42746;49.976;20.182;2022-07-17T07:22:46;8.00;;;2.78;;
56862;SDS011;42746;49.976;20.182;2022-07-17T07:24:47;6.63;;;1.85;;
56862;SDS011;42746;49.976;20.182;2022-07-17T07:26:48;6.07;;;2.00;;
56862;SDS011;42746;49.976;20.182;2022-07-17T07:28:48;5.05;;;2.03;;
56862;SDS011;42746;49.976;20.182;2022-07-17T07:30:49;3.47;;;2.22;;
56862;SDS011;42746;49.976;20.182;2022-07-17T07:32:51;10.30;;;1.73;;
56862;SDS011;42746;49.976;20.182;2022-07-17T07:34:52;6.60;;;1.70;;
56862;SDS011;42746;49.976;20.182;2022-07-17T07:36:53;8.55;;;1.98;;
56862;SDS011;42746;49.976;20.182;2022-07-17T07:38:54;5.97;;;2.03;;
56862;SDS011;42746;49.976;20.182;2022-07-17T07:40:55;6.32;;;1.98;;
56862;SDS011;42746;49.976;20.182;2022-07-17T07:42:56;7.88;;;2.10;;
56862;SDS011;42746;49.976;20.182;2022-07-17T07:44:57;5.10;;;1.88;;
56862;SDS011;42746;49.976;20.182;2022-07-17T07:46:58;6.20;;;2.10;;
56862;SDS011;42746;49.976;20.182;2022-07-17T07:49:00;6.38;;;1.73;;
56862;SDS011;42746;49.976;20.182;2022-07-17T07:51:01;5.50;;;1.90;;
56862;SDS011;42746;49.976;20.182;2022-07-17T07:53:02;6.82;;;2.10;;
56862;SDS011;42746;49.976;20.182;2022-07-17T07:55:03;8.45;;;2.00;;
56862;SDS011;42746;49.976;20.182;2022-07-17T07:57:04;4.38;;;1.50;;
56862;SDS011;42746;49.976;20.182;2022-07-17T07:59:05;7.93;;;1.80;;
56862;SDS011;42746;49.976;20.182;2022-07-17T08:01:06;6.88;;;1.60;;
56862;SDS011;42746;49.976;20.182;2022-07-17T08:03:07;3.20;;;1.20;;
56862;SDS011;42746;49.976;20.182;2022-07-17T08:05:09;2.40;;;1.33;;
56862;SDS011;42746;49.976;20.182;2022-07-17T08:07:10;5.75;;;1.65;;
56862;SDS011;42746;49.976;20.182;2022-07-17T08:09:11;5.80;;;1.38;;
56862;SDS011;42746;49.976;20.182;2022-07-17T08:11:11;5.75;;;1.52;;
56862;SDS011;42746;49.976;20.182;2022-07-17T08:13:12;4.90;;;1.58;;
56862;SDS011;42746;49.976;20.182;2022-07-17T08:15:13;5.00;;;1.90;;
56862;SDS011;42746;49.976;20.182;2022-07-17T08:17:14;4.55;;;1.50;;
56862;SDS011;42746;49.976;20.182;2022-07-17T08:19:15;2.22;;;1.40;;
56862;SDS011;42746;49.976;20.182;2022-07-17T08:21:17;6.70;;;1.50;;
56862;SDS011;42746;49.976;20.182;2022-07-17T08:23:18;7.90;;;1.98;;
56862;SDS011;42746;49.976;20.182;2022-07-17T08:25:19;4.40;;;1.35;;
56862;SDS011;42746;49.976;20.182;2022-07-17T08:27:19;3.10;;;1.20;;
56862;SDS011;42746;49.976;20.182;2022-07-17T08:29:20;4.00;;;1.40;;
56862;SDS011;42746;49.976;20.182;2022-07-17T08:31:21;5.53;;;1.63;;
56862;SDS011;42746;49.976;20.182;2022-07-17T08:33:22;3.08;;;1.20;;
56862;SDS011;42746;49.976;20.182;2022-07-17T08:35:23;6.70;;;1.52;;
56862;SDS011;42746;49.976;20.182;2022-07-17T08:37:25;3.60;;;1.20;;
56862;SDS011;42746;49.976;20.182;2022-07-17T08:39:26;7.43;;;1.65;;
56862;SDS011;42746;49.976;20.182;2022-07-17T08:41:27;5.00;;;1.48;;
56862;SDS011;42746;49.976;20.182;2022-07-17T08:43:29;3.58;;;1.40;;
56862;SDS011;42746;49.976;20.182;2022-07-17T08:45:30;6.28;;;1.27;;
56862;SDS011;42746;49.976;20.182;2022-07-17T08:47:30;4.10;;;1.15;;
56862;SDS011;42746;49.976;20.182;2022-07-17T08:49:31;2.55;;;1.25;;
56862;SDS011;42746;49.976;20.182;2022-07-17T08:51:35;6.78;;;1.55;;
56862;SDS011;42746;49.976;20.182;2022-07-17T08:53:37;3.97;;;1.30;;
56862;SDS011;42746;49.976;20.182;2022-07-17T08:55:38;4.25;;;1.40;;
56862;SDS011;42746;49.976;20.182;2022-07-17T08:57:39;4.35;;;1.35;;
56862;SDS011;42746;49.976;20.182;2022-07-17T08:59:41;5.43;;;1.52;;
56862;SDS011;42746;49.976;20.182;2022-07-17T09:01:42;7.90;;;1.52;;
56862;SDS011;42746;49.976;20.182;2022-07-17T09:03:52;3.22;;;1.23;;
56862;SDS011;42746;49.976;20.182;2022-07-17T09:05:54;4.18;;;1.13;;
56862;SDS011;42746;49.976;20.182;2022-07-17T09:07:55;2.88;;;1.27;;
56862;SDS011;42746;49.976;20.182;2022-07-17T09:09:57;4.13;;;1.27;;
56862;SDS011;42746;49.976;20.182;2022-07-17T09:11:58;2.55;;;1.25;;
56862;SDS011;42746;49.976;20.182;2022-07-17T09:14:00;3.40;;;0.90;;
56862;SDS011;42746;49.976;20.182;2022-07-17T09:16:06;2.63;;;1.02;;
56862;SDS011;42746;49.976;20.182;2022-07-17T09:18:08;4.32;;;1.33;;
56862;SDS011;42746;49.976;20.182;2022-07-17T09:20:12;3.22;;;1.15;;
56862;SDS011;42746;49.976;20.182;2022-07-17T09:22:13;6.07;;;1.63;;
56862;SDS011;42746;49.976;20.182;2022-07-17T09:24:15;5.75;;;1.38;;
56862;SDS011;42746;49.976;20.182;2022-07-17T09:26:18;2.67;;;1.05;;
56862;SDS011;42746;49.976;20.182;2022-07-17T09:28:19;5.05;;;1.75;;
56862;SDS011;42746;49.976;20.182;2022-07-17T09:30:20;5.47;;;1.27;;
56862;SDS011;42746;49.976;20.182;2022-07-17T09:32:37;2.63;;;1.17;;
56862;SDS011;42746;49.976;20.182;2022-07-17T09:34:43;6.65;;;1.33;;
56862;SDS011;42746;49.976;20.182;2022-07-17T09:36:44;3.55;;;1.13;;
56862;SDS011;42746;49.976;20.182;2022-07-17T09:38:45;5.22;;;1.73;;
56862;SDS011;42746;49.976;20.182;2022-07-17T09:40:46;4.00;;;0.98;;
56862;SDS011;42746;49.976;20.182;2022-07-17T09:42:48;3.85;;;1.10;;
56862;SDS011;42746;49.976;20.182;2022-07-17T09:44:56;2.70;;;0.98;;
56862;SDS011;42746;49.976;20.182;2022-07-17T09:49:01;2.67;;;0.97;;
56862;SDS011;42746;49.976;20.182;2022-07-17T09:51:03;3.22;;;1.05;;
56862;SDS011;42746;49.976;20.182;2022-07-17T09:53:04;2.78;;;1.00;;
56862;SDS011;42746;49.976;20.182;2022-07-17T09:55:07;3.10;;;1.08;;
56862;SDS011;42746;49.976;20.182;2022-07-17T09:57:08;4.00;;;1.02;;
56862;SDS011;42746;49.976;20.182;2022-07-17T09:59:11;2.35;;;0.90;;
56862;SDS011;42746;49.976;20.182;2022-07-17T10:01:13;3.42;;;1.20;;
56862;SDS011;42746;49.976;20.182;2022-07-17T10:03:16;7.15;;;1.15;;
56862;SDS011;42746;49.976;20.182;2022-07-17T10:05:18;3.00;;;0.98;;
56862;SDS011;42746;49.976;20.182;2022-07-17T10:07:19;2.33;;;0.98;;
56862;SDS011;42746;49.976;20.182;2022-07-17T10:09:21;4.57;;;1.45;;
56862;SDS011;42746;49.976;20.182;2022-07-17T10:11:22;9.18;;;1.10;;
56862;SDS011;42746;49.976;20.182;2022-07-17T10:13:25;2.38;;;1.00;;
56862;SDS011;42746;49.976;20.182;2022-07-17T10:15:28;6.13;;;1.10;;
56862;SDS011;42746;49.976;20.182;2022-07-17T10:17:29;3.47;;;1.20;;
56862;SDS011;42746;49.976;20.182;2022-07-17T10:19:31;2.88;;;1.00;;
56862;SDS011;42746;49.976;20.182;2022-07-17T10:21:32;5.45;;;1.17;;
56862;SDS011;42746;49.976;20.182;2022-07-17T10:23:33;4.75;;;1.13;;
56862;SDS011;42746;49.976;20.182;2022-07-17T10:25:34;2.22;;;0.90;;
56862;SDS011;42746;49.976;20.182;2022-07-17T10:27:35;3.75;;;1.00;;
56862;SDS011;42746;49.976;20.182;2022-07-17T10:29:37;1.80;;;0.83;;
56862;SDS011;42746;49.976;20.182;2022-07-17T10:31:48;4.35;;;1.40;;
56862;SDS011;42746;49.976;20.182;2022-07-17T10:33:54;3.47;;;0.90;;
56862;SDS011;42746;49.976;20.182;2022-07-17T10:35:57;1.75;;;0.90;;
56862;SDS011;42746;49.976;20.182;2022-07-17T10:37:58;5.40;;;0.85;;
56862;SDS011;42746;49.976;20.182;2022-07-17T10:40:10;3.97;;;1.10;;
56862;SDS011;42746;49.976;20.182;2022-07-17T10:42:15;3.90;;;1.10;;
56862;SDS011;42746;49.976;20.182;2022-07-17T10:45:04;3.58;;;0.77;;
56862;SDS011;42746;49.976;20.182;2022-07-17T10:47:07;2.25;;;0.77;;
56862;SDS011;42746;49.976;20.182;2022-07-17T10:49:08;3.30;;;0.93;;
56862;SDS011;42746;49.976;20.182;2022-07-17T10:51:09;4.95;;;1.20;;
56862;SDS011;42746;49.976;20.182;2022-07-17T10:53:12;7.03;;;1.25;;
56862;SDS011;42746;49.976;20.182;2022-07-17T10:55:19;3.85;;;1.08;;
56862;SDS011;42746;49.976;20.182;2022-07-17T10:57:20;5.50;;;1.10;;
56862;SDS011;42746;49.976;20.182;2022-07-17T10:59:22;5.53;;;1.05;;
56862;SDS011;42746;49.976;20.182;2022-07-17T11:01:23;2.08;;;0.95;;
56862;SDS011;42746;49.976;20.182;2022-07-17T11:03:25;1.80;;;0.85;;
56862;SDS011;42746;49.976;20.182;2022-07-17T11:05:26;2.55;;;0.93;;
56862;SDS011;42746;49.976;20.182;2022-07-17T11:07:27;3.03;;;0.95;;
56862;SDS011;42746;49.976;20.182;2022-07-17T11:09:28;1.83;;;0.80;;
56862;SDS011;42746;49.976;20.182;2022-07-17T11:11:35;1.90;;;0.63;;
56862;SDS011;42746;49.976;20.182;2022-07-17T11:13:38;1.27;;;0.80;;
56862;SDS011;42746;49.976;20.182;2022-07-17T11:15:42;3.33;;;0.98;;
56862;SDS011;42746;49.976;20.182;2022-07-17T11:17:45;4.10;;;1.13;;
56862;SDS011;42746;49.976;20.182;2022-07-17T11:19:48;2.15;;;0.90;;
56862;SDS011;42746;49.976;20.182;2022-07-17T11:21:49;2.97;;;1.00;;
56862;SDS011;42746;49.976;20.182;2022-07-17T11:23:51;4.47;;;1.08;;
56862;SDS011;42746;49.976;20.182;2022-07-17T11:25:54;2.00;;;0.80;;
56862;SDS011;42746;49.976;20.182;2022-07-17T11:27:56;4.13;;;0.90;;
56862;SDS011;42746;49.976;20.182;2022-07-17T11:29:59;2.45;;;0.75;;
56862;SDS011;42746;49.976;20.182;2022-07-17T11:32:01;2.95;;;0.80;;
56862;SDS011;42746;49.976;20.182;2022-07-17T11:34:03;3.30;;;0.90;;
56862;SDS011;42746;49.976;20.182;2022-07-17T11:36:07;9.18;;;1.00;;
56862;SDS011;42746;49.976;20.182;2022-07-17T11:40:08;3.20;;;0.93;;
56862;SDS011;42746;49.976;20.182;2022-07-17T11:42:10;3.75;;;0.95;;
56862;SDS011;42746;49.976;20.182;2022-07-17T11:44:13;4.00;;;0.90;;
56862;SDS011;42746;49.976;20.182;2022-07-17T11:48:15;1.77;;;0.70;;
56862;SDS011;42746;49.976;20.182;2022-07-17T11:50:17;1.95;;;0.63;;
56862;SDS011;42746;49.976;20.182;2022-07-17T11:52:19;3.13;;;0.80;;
56862;SDS011;42746;49.976;20.182;2022-07-17T11:54:21;1.17;;;0.70;;
56862;SDS011;42746;49.976;20.182;2022-07-17T11:56:22;4.60;;;1.15;;
56862;SDS011;42746;49.976;20.182;2022-07-17T11:58:23;5.72;;;0.90;;
56862;SDS011;42746;49.976;20.182;2022-07-17T12:00:23;3.10;;;0.93;;
56862;SDS011;42746;49.976;20.182;2022-07-17T12:02:29;2.83;;;0.85;;
56862;SDS011;42746;49.976;20.182;2022-07-17T12:04:31;3.22;;;0.75;;
56862;SDS011;42746;49.976;20.182;2022-07-17T12:06:32;5.55;;;1.17;;